This is the latest recevied weather packets stored in our database for station/object VA3BOO. If no packets are shown the sender has not sent any weather packets the latest 10 day(s).
| Time | Temp. | Humidity | Pressure | Rain* | Wind** | Luminosity | Snow |
|---|---|---|---|---|---|---|---|
| 1777650904 | 10° C | 42% | 1013 hPa | 0 mm | - | 871 W/m² | - |
| 1777650604 | 9.44° C | 43% | 1013.1 hPa | 0 mm | - | 651 W/m² | - |
| 1777650304 | 9.44° C | 46% | 1013.1 hPa | 0 mm | - | 652 W/m² | - |
| 1777650004 | 10.56° C | 41% | 1013.1 hPa | 0 mm | - | 725 W/m² | - |
| 1777649704 | 10° C | 44% | 1013.3 hPa | 0 mm | - | 565 W/m² | - |
| 1777649404 | 9.44° C | 45% | 1013.2 hPa | 0 mm | - | 489 W/m² | - |
| 1777649104 | 10° C | 45% | 1013.4 hPa | 0 mm | - | 493 W/m² | - |
| 1777648804 | 10° C | 46% | 1013.2 hPa | 0 mm | - | 685 W/m² | - |
| 1777648504 | 9.44° C | 48% | 1013.3 hPa | 0 mm | - | 477 W/m² | - |
| 1777648204 | 8.89° C | 51% | 1013.3 hPa | 0 mm | - | 549 W/m² | - |
| 1777647904 | 8.89° C | 53% | 1013.4 hPa | 0 mm | - | 462 W/m² | - |
| 1777647604 | 8.89° C | 51% | 1013.2 hPa | 0 mm | - | 409 W/m² | - |
| 1777647304 | 8.89° C | 51% | 1013.5 hPa | 0 mm | - | 362 W/m² | - |
| 1777647004 | 8.33° C | 54% | 1013.4 hPa | 0 mm | - | 352 W/m² | - |
| 1777646704 | 8.33° C | 53% | 1013.3 hPa | 0 mm | - | 356 W/m² | - |
| 1777646404 | 7.78° C | 56% | 1013.4 hPa | 0 mm | - | 323 W/m² | - |
| 1777646104 | 8.33° C | 53% | 1013.3 hPa | 0 mm | - | 339 W/m² | - |
| 1777645804 | 7.78° C | 55% | 1013.3 hPa | 0 mm | - | 320 W/m² | - |
| 1777645504 | 7.78° C | 53% | 1013.5 hPa | 0 mm | - | 385 W/m² | - |
| 1777645204 | 7.78° C | 55% | 1013.2 hPa | 0 mm | - | 300 W/m² | - |
| 1777644904 | 7.22° C | 55% | 1013.2 hPa | 0 mm | - | 335 W/m² | - |
| 1777644604 | 7.22° C | 55% | 1013.1 hPa | 0 mm | - | 305 W/m² | - |
| 1777644304 | 7.78° C | 55% | 1013.1 hPa | 0 mm | - | 443 W/m² | - |
| 1777644004 | 7.78° C | 54% | 1013.1 hPa | 0 mm | - | 507 W/m² | - |
| 1777643704 | 7.78° C | 55% | 1013.3 hPa | 0 mm | - | 416 W/m² | - |
* Rain latest hour (hover to see other rain measurements)
** Current wind speed in m/s (hover to see current wind gust speed)